createdAt,value
2019-06-15T00:00:35.096Z,95800.43
2019-06-15T00:03:03.636Z,95789.87
2019-06-15T00:05:32.254Z,95796.38
2019-06-15T00:08:00.654Z,95800.73
2019-06-15T00:10:29.105Z,95808.87
2019-06-15T00:12:57.515Z,95811.30
2019-06-15T00:15:25.978Z,95814.02
2019-06-15T00:17:54.510Z,95812.12
2019-06-15T00:20:22.917Z,95807.00
2019-06-15T00:22:51.324Z,95807.28
2019-06-15T00:25:19.746Z,95800.52
2019-06-15T00:27:48.215Z,95801.33
2019-06-15T00:30:17.060Z,95805.38
2019-06-15T00:32:45.486Z,95804.59
2019-06-15T00:35:14.259Z,95814.87
2019-06-15T00:37:42.656Z,95810.28
2019-06-15T00:40:12.663Z,95807.31
2019-06-15T00:42:41.078Z,95801.36
2019-06-15T00:45:09.689Z,95797.87
2019-06-15T00:47:38.134Z,95791.09
2019-06-15T00:50:07.180Z,95797.87
2019-06-15T00:52:35.584Z,95800.30
2019-06-15T00:55:05.648Z,95794.63
2019-06-15T00:57:34.800Z,95783.28
2019-06-15T01:00:04.806Z,95781.13
2019-06-15T01:02:33.263Z,95770.58
2019-06-15T01:05:01.919Z,95767.59
2019-06-15T01:07:30.319Z,95772.47
2019-06-15T01:09:58.875Z,95766.52
2019-06-15T01:12:27.397Z,95762.47
2019-06-15T01:14:55.864Z,95768.16
2019-06-15T01:17:24.363Z,95772.47
2019-06-15T01:19:52.768Z,95759.20
2019-06-15T01:22:21.157Z,95764.88
2019-06-15T01:24:49.630Z,95754.59
2019-06-15T01:27:18.019Z,95755.70
2019-06-15T01:29:46.885Z,95758.11
2019-06-15T01:32:15.305Z,95755.96
2019-06-15T01:34:43.711Z,95750.55
2019-06-15T01:37:12.111Z,95741.37
2019-06-15T01:39:40.576Z,95737.84
2019-06-15T01:42:08.982Z,95732.17
2019-06-15T01:44:37.454Z,95734.34
2019-06-15T01:47:05.970Z,95736.77
2019-06-15T01:49:34.359Z,95737.30
2019-06-15T01:52:02.845Z,95739.73
2019-06-15T01:54:31.267Z,95728.65
2019-06-15T01:56:59.732Z,95735.41
2019-06-15T01:59:28.177Z,95722.72
2019-06-15T02:01:56.750Z,95721.89
2019-06-15T02:04:25.175Z,95729.47
2019-06-15T02:06:53.627Z,95747.84
2019-06-15T02:09:22.194Z,95745.16
2019-06-15T02:11:50.597Z,95731.36
2019-06-15T02:14:18.993Z,95713.52
2019-06-15T02:16:47.419Z,95708.40
2019-06-15T02:19:15.814Z,95715.97
2019-06-15T02:21:44.215Z,95725.69
2019-06-15T02:24:12.771Z,95731.10
2019-06-15T02:26:41.152Z,95725.42
2019-06-15T02:29:09.554Z,95716.77
2019-06-15T02:31:38.192Z,95719.47
2019-06-15T02:34:06.592Z,95723.53
2019-06-15T02:36:35.065Z,95713.53
2019-06-15T02:39:04.932Z,95716.77
2019-06-15T02:41:33.335Z,95716.51
2019-06-15T02:44:01.874Z,95725.67
2019-06-15T02:46:30.315Z,95736.22
2019-06-15T02:48:58.776Z,95740.27
2019-06-15T02:51:27.337Z,95731.65
2019-06-15T02:53:55.848Z,95738.66
2019-06-15T02:56:24.270Z,95741.91
2019-06-15T02:58:52.644Z,95748.66
2019-06-15T03:01:21.113Z,95742.72
2019-06-15T03:03:49.511Z,95750.84
2019-06-15T03:06:17.982Z,95741.35
2019-06-15T03:08:46.832Z,95734.06
2019-06-15T03:11:15.222Z,95733.23
2019-06-15T03:13:45.142Z,95732.70
2019-06-15T03:16:13.701Z,95727.03
2019-06-15T03:18:42.100Z,95728.38
2019-06-15T03:21:10.507Z,95728.38
2019-06-15T03:23:39.005Z,95727.28
2019-06-15T03:26:07.470Z,95733.50
2019-06-15T03:28:35.869Z,95733.51
2019-06-15T03:31:04.498Z,95730.53
2019-06-15T03:33:32.893Z,95734.31
2019-06-15T03:36:01.320Z,95732.42
2019-06-15T03:38:29.930Z,95749.47
2019-06-15T03:40:58.401Z,95751.38
2019-06-15T03:43:26.801Z,95756.77
2019-06-15T03:45:55.220Z,95756.22
2019-06-15T03:48:23.617Z,95755.69
2019-06-15T03:50:52.016Z,95754.08
2019-06-15T03:53:20.457Z,95751.65
2019-06-15T03:55:48.862Z,95748.41
2019-06-15T03:58:17.316Z,95751.91
2019-06-15T04:00:48.121Z,95742.46
2019-06-15T04:03:16.666Z,95747.59
2019-06-15T04:05:45.418Z,95744.61
2019-06-15T04:08:13.925Z,95746.22
2019-06-15T04:10:42.324Z,95745.40
2019-06-15T04:13:10.738Z,95742.70
2019-06-15T04:15:39.297Z,95745.41
2019-06-15T04:18:07.771Z,95747.84
2019-06-15T04:20:36.171Z,95743.51
2019-06-15T04:23:05.049Z,95738.11
2019-06-15T04:25:33.513Z,95744.84
2019-06-15T04:28:01.912Z,95732.43
2019-06-15T04:30:30.337Z,95745.11
2019-06-15T04:32:58.819Z,95744.00
2019-06-15T04:35:27.226Z,95744.52
2019-06-15T04:37:55.660Z,95742.34
2019-06-15T04:40:24.158Z,95747.48
2019-06-15T04:42:52.552Z,95738.30
2019-06-15T04:45:21.145Z,95734.77
2019-06-15T04:47:49.553Z,95735.57
2019-06-15T04:50:18.013Z,95737.47
2019-06-15T04:52:46.524Z,95737.73
2019-06-15T04:55:14.934Z,95734.20
2019-06-15T04:57:43.335Z,95735.29
2019-06-15T05:00:12.342Z,95744.48
2019-06-15T05:02:41.088Z,95738.28
2019-06-15T05:05:09.551Z,95739.08
2019-06-15T05:07:37.981Z,95749.63
2019-06-15T05:10:06.984Z,95747.20
2019-06-15T05:12:35.760Z,95746.38
2019-06-15T05:15:05.788Z,95752.06
2019-06-15T05:17:34.326Z,95753.13
2019-06-15T05:20:03.014Z,95745.29
2019-06-15T05:22:31.436Z,95755.55
2019-06-15T05:24:59.856Z,95764.45
2019-06-15T05:27:28.233Z,95768.19
2019-06-15T05:29:56.775Z,95759.28
2019-06-15T05:32:25.378Z,95770.89
2019-06-15T05:34:53.777Z,95765.77
2019-06-15T05:37:22.312Z,95771.17
2019-06-15T05:39:50.710Z,95777.38
2019-06-15T05:42:19.113Z,95782.20
2019-06-15T05:44:47.650Z,95777.86
2019-06-15T05:47:16.065Z,95781.10
2019-06-15T05:49:44.467Z,95793.80
2019-06-15T05:52:12.893Z,95782.23
2019-06-15T05:54:41.289Z,95790.88
2019-06-15T05:57:21.253Z,95788.75
2019-06-15T05:59:39.850Z,95784.21
2019-06-15T06:02:08.325Z,95790.44
2019-06-15T06:04:36.725Z,95782.92
2019-06-15T06:07:05.339Z,95789.44
2019-06-15T06:09:33.808Z,95778.93
2019-06-15T06:12:02.351Z,95782.70
2019-06-15T06:14:30.887Z,95786.79
2019-06-15T06:16:59.418Z,95782.99
2019-06-15T06:19:27.776Z,95780.03
2019-06-15T06:21:58.323Z,95786.55
2019-06-15T06:24:26.546Z,95784.09
2019-06-15T06:26:54.945Z,95790.06
2019-06-15T06:29:23.364Z,95786.78
2019-06-15T06:31:51.823Z,95798.13
2019-06-15T06:34:20.254Z,95797.59
2019-06-15T06:36:48.851Z,95806.76
2019-06-15T06:39:17.271Z,95807.84
2019-06-15T06:41:45.652Z,95812.97
2019-06-15T06:44:14.199Z,95805.34
2019-06-15T06:46:42.606Z,95816.13
2019-06-15T06:49:11.007Z,95839.68
2019-06-15T06:51:39.505Z,95898.95
2019-06-15T06:54:07.915Z,95892.95
2019-06-15T06:56:36.326Z,95902.14
2019-06-15T06:59:04.746Z,95912.12
2019-06-15T07:01:33.179Z,95911.52
2019-06-15T07:04:01.795Z,95914.97
2019-06-15T07:06:30.492Z,95926.58
2019-06-15T07:08:58.902Z,95933.34
2019-06-15T07:11:27.307Z,95942.84
2019-06-15T07:13:55.735Z,95940.13
2019-06-15T07:16:24.131Z,95935.02
2019-06-15T07:18:52.534Z,95941.30
2019-06-15T07:21:20.980Z,95948.07
2019-06-15T07:23:49.372Z,95931.80
2019-06-15T07:26:17.791Z,95953.73
2019-06-15T07:28:46.212Z,95960.28
2019-06-15T07:31:14.685Z,95965.17
2019-06-15T07:33:43.187Z,95967.05
2019-06-15T07:36:11.615Z,95968.96
2019-06-15T07:38:40.062Z,95969.75
2019-06-15T07:41:08.440Z,95977.84
2019-06-15T07:43:36.997Z,95986.80
2019-06-15T07:46:05.408Z,95993.84
2019-06-15T07:48:33.814Z,95979.45
2019-06-15T07:51:02.254Z,96001.66
2019-06-15T07:53:30.651Z,96010.64
2019-06-15T07:55:59.120Z,96004.66
2019-06-15T07:58:27.559Z,96001.08
2019-06-15T08:00:55.958Z,96007.02
2019-06-15T08:03:24.359Z,96005.89
2019-06-15T08:05:52.793Z,96012.60
2019-06-15T08:08:21.197Z,96011.47
2019-06-15T08:10:49.598Z,96014.94
2019-06-15T08:13:18.718Z,96016.27
2019-06-15T08:15:47.291Z,96021.95
2019-06-15T08:18:15.632Z,96027.38
2019-06-15T08:20:44.318Z,96037.14
2019-06-15T08:23:12.720Z,96040.63
2019-06-15T08:25:41.123Z,96049.86
2019-06-15T08:28:09.632Z,96042.58
2019-06-15T08:31:04.537Z,96050.20
2019-06-15T08:33:33.236Z,96059.42
2019-06-15T08:36:02.472Z,96056.93
2019-06-15T08:38:31.024Z,96059.51
2019-06-15T08:40:59.457Z,96059.51
2019-06-15T08:43:27.862Z,96051.30
2019-06-15T08:45:56.271Z,96048.85
2019-06-15T08:48:24.735Z,96063.64
2019-06-15T08:50:53.153Z,96066.81
2019-06-15T08:53:21.574Z,96066.81
2019-06-15T08:55:49.982Z,96065.66
2019-06-15T08:58:18.385Z,96055.82
2019-06-15T09:00:46.800Z,96061.95
2019-06-15T09:03:15.324Z,96061.95
2019-06-15T09:05:43.720Z,96072.43
2019-06-15T09:08:12.112Z,96045.02
2019-06-15T09:10:40.528Z,96064.79
2019-06-15T09:13:08.931Z,96071.86
2019-06-15T09:15:46.676Z,96078.11
2019-06-15T09:18:15.099Z,96078.11
2019-06-15T09:20:43.493Z,96075.70
2019-06-15T09:23:11.929Z,96074.63
2019-06-15T09:25:40.412Z,96083.66
2019-06-15T09:28:08.819Z,96084.06
2019-06-15T09:30:37.260Z,96083.78
2019-06-15T09:33:05.717Z,96086.73
2019-06-15T09:35:34.145Z,96083.18
2019-06-15T09:38:02.622Z,96087.11
2019-06-15T09:40:31.358Z,96090.19
2019-06-15T09:42:59.756Z,96091.22
2019-06-15T09:45:28.181Z,96086.30
2019-06-15T09:47:56.646Z,96086.85
2019-06-15T09:50:25.044Z,96099.34
2019-06-15T09:52:53.472Z,96095.48
2019-06-15T09:55:21.942Z,96090.31
2019-06-15T09:57:50.338Z,96089.81
2019-06-15T10:00:19.096Z,96087.83
2019-06-15T10:02:47.518Z,96092.44
2019-06-15T10:05:16.073Z,96096.42
2019-06-15T10:07:44.624Z,96100.59
2019-06-15T10:10:14.561Z,96088.67
2019-06-15T10:12:42.959Z,96102.59
2019-06-15T10:15:12.114Z,96099.50
2019-06-15T10:17:40.514Z,96104.34
2019-06-15T10:20:09.548Z,96102.28
2019-06-15T10:22:38.201Z,96102.23
2019-06-15T10:25:08.180Z,96095.64
2019-06-15T10:27:36.685Z,96098.33
2019-06-15T10:30:09.651Z,96098.08
2019-06-15T10:32:38.057Z,96108.94
2019-06-15T10:35:06.794Z,96099.55
2019-06-15T10:37:35.221Z,96103.13
2019-06-15T10:40:05.863Z,96101.05
2019-06-15T10:42:34.296Z,96102.86
2019-06-15T10:45:03.128Z,96107.81
2019-06-15T10:47:31.559Z,96099.35
2019-06-15T10:49:59.912Z,96109.45
2019-06-15T10:52:28.653Z,96105.05
2019-06-15T10:54:57.112Z,96108.72
2019-06-15T10:57:25.531Z,96108.31
2019-06-15T10:59:57.670Z,96103.08
2019-06-15T11:02:24.139Z,96101.63
2019-06-15T11:04:52.608Z,96104.87
2019-06-15T11:07:21.032Z,96115.22
2019-06-15T11:09:49.429Z,96118.24
2019-06-15T11:12:17.830Z,96110.86
2019-06-15T11:14:46.404Z,96111.38
2019-06-15T11:17:14.885Z,96114.41
2019-06-15T11:19:43.354Z,96120.16
2019-06-15T11:22:11.784Z,96110.52
2019-06-15T11:24:40.178Z,96113.46
2019-06-15T11:27:08.592Z,96112.66
2019-06-15T11:29:37.012Z,96109.22
2019-06-15T11:32:05.420Z,96102.80
2019-06-15T11:34:33.839Z,96108.41
2019-06-15T11:37:03.888Z,96110.19
2019-06-15T11:39:32.308Z,96115.66
2019-06-15T11:42:00.715Z,96119.09
2019-06-15T11:44:30.666Z,96104.80
2019-06-15T11:46:59.056Z,96107.33
2019-06-15T11:49:27.455Z,96103.94
2019-06-15T11:51:55.901Z,96102.20
2019-06-15T11:54:24.300Z,96105.30
2019-06-15T11:56:52.689Z,96104.00
2019-06-15T11:59:21.120Z,96104.47
2019-06-15T12:01:49.578Z,96098.92
2019-06-15T12:04:17.990Z,96102.73
2019-06-15T12:06:46.554Z,96092.48
2019-06-15T12:09:14.985Z,96093.67
2019-06-15T12:11:43.430Z,96103.63
2019-06-15T12:14:11.865Z,96102.56
2019-06-15T12:16:40.262Z,96105.67
2019-06-15T12:19:08.656Z,96102.86
2019-06-15T12:21:37.086Z,96109.03
2019-06-15T12:24:05.580Z,96110.20
2019-06-15T12:26:34.037Z,96115.73
2019-06-15T12:29:02.446Z,96113.06
2019-06-15T12:31:30.850Z,96110.55
2019-06-15T12:33:59.291Z,96108.63
2019-06-15T12:36:27.731Z,96108.63
2019-06-15T12:38:56.149Z,96113.16
2019-06-15T12:41:24.550Z,96109.57
2019-06-15T12:43:53.344Z,96116.11
2019-06-15T12:46:21.740Z,96117.86
2019-06-15T12:48:50.146Z,96117.29
2019-06-15T12:51:18.573Z,96120.38
2019-06-15T12:53:46.982Z,96104.84
2019-06-15T12:56:15.421Z,96087.14
2019-06-15T12:58:43.841Z,96078.52
2019-06-15T13:01:12.237Z,96073.72
2019-06-15T13:03:40.655Z,96075.73
2019-06-15T13:06:09.068Z,96073.57
2019-06-15T13:08:37.468Z,96070.80
2019-06-15T13:11:05.872Z,96076.09
2019-06-15T13:13:34.310Z,96083.94
2019-06-15T13:16:02.702Z,96088.45
2019-06-15T13:18:31.125Z,96090.70
2019-06-15T13:20:59.575Z,96093.59
2019-06-15T13:23:27.990Z,96088.69
2019-06-15T13:25:56.389Z,96085.91
2019-06-15T13:28:24.872Z,96095.27
2019-06-15T13:30:53.273Z,96093.68
2019-06-15T13:33:23.377Z,96094.41
2019-06-15T13:35:51.770Z,96090.87
2019-06-15T13:38:20.170Z,96096.03
2019-06-15T13:40:48.564Z,96096.34
2019-06-15T13:43:16.998Z,96101.02
2019-06-15T13:45:45.764Z,96094.69
2019-06-15T13:48:14.167Z,96097.89
2019-06-15T13:50:42.594Z,96103.34
2019-06-15T13:53:11.007Z,96102.13
2019-06-15T13:55:39.478Z,96100.16
2019-06-15T13:58:08.297Z,96106.89
2019-06-15T14:00:36.762Z,96104.67
2019-06-15T14:03:05.400Z,96101.53
2019-06-15T14:05:33.833Z,96088.74
2019-06-15T14:08:02.231Z,96091.92
2019-06-15T14:10:30.630Z,96092.22
2019-06-15T14:12:59.162Z,96096.68
2019-06-15T14:15:27.563Z,96099.95
2019-06-15T14:17:55.976Z,96109.40
2019-06-15T14:20:24.450Z,96100.58
2019-06-15T14:22:52.836Z,96097.10
2019-06-15T14:25:21.232Z,96100.00
2019-06-15T14:27:49.662Z,96094.56
2019-06-15T14:30:18.311Z,96081.50
2019-06-15T14:32:46.720Z,96077.45
2019-06-15T14:35:15.320Z,96072.56
2019-06-15T14:37:43.739Z,96073.27
2019-06-15T14:40:12.663Z,96071.00
2019-06-15T14:42:41.144Z,96068.70
2019-06-15T14:45:10.775Z,96068.70
2019-06-15T14:47:39.247Z,96074.23
2019-06-15T14:50:08.741Z,96076.53
2019-06-15T14:52:37.146Z,96077.41
2019-06-15T14:55:07.324Z,96075.70
2019-06-15T14:57:36.196Z,96071.62
2019-06-15T15:00:08.920Z,96071.06
2019-06-15T15:02:37.257Z,96074.84
2019-06-15T15:05:08.317Z,96068.42
2019-06-15T15:07:37.091Z,96067.64
2019-06-15T15:10:08.668Z,96059.86
2019-06-15T15:12:37.446Z,96061.23
2019-06-15T15:15:09.484Z,96064.19
2019-06-15T15:17:38.725Z,96057.50
2019-06-15T15:20:08.191Z,96055.22
2019-06-15T15:22:37.231Z,96058.79
2019-06-15T15:25:06.706Z,96052.22
2019-06-15T15:27:37.431Z,96044.55
2019-06-15T15:30:13.404Z,96051.17
2019-06-15T15:32:42.003Z,96047.98
2019-06-15T15:35:10.558Z,96053.64
2019-06-15T15:37:38.957Z,96061.73
2019-06-15T15:40:07.948Z,96060.18
2019-06-15T15:42:37.154Z,96060.95
2019-06-15T15:45:07.544Z,96055.69
2019-06-15T15:47:36.203Z,96064.91
2019-06-15T15:50:06.915Z,96071.30
2019-06-15T15:52:37.482Z,96076.49
2019-06-15T15:55:07.225Z,96076.25
2019-06-15T15:57:36.352Z,96076.20
2019-06-15T16:00:07.465Z,96073.63
2019-06-15T16:02:47.691Z,96063.58
2019-06-15T16:05:07.750Z,96069.09
2019-06-15T16:07:36.524Z,96069.14
2019-06-15T16:10:06.894Z,96070.82
2019-06-15T16:12:36.197Z,96065.77
2019-06-15T16:15:07.626Z,96065.06
2019-06-15T16:17:37.220Z,96067.35
2019-06-15T16:20:08.921Z,96064.80
2019-06-15T16:22:37.410Z,96067.37
2019-06-15T16:25:06.803Z,96061.70
2019-06-15T16:27:37.104Z,96057.72
2019-06-15T16:30:09.509Z,96062.72
2019-06-15T16:32:38.154Z,96065.27
2019-06-15T16:35:08.229Z,96067.55
2019-06-15T16:37:36.629Z,96063.81
2019-06-15T16:40:09.021Z,96062.22
2019-06-15T16:42:37.418Z,96061.44
2019-06-15T16:45:06.780Z,96057.22
2019-06-15T16:47:36.364Z,96058.39
2019-06-15T16:50:07.000Z,96064.41
2019-06-15T16:52:36.373Z,96062.25
2019-06-15T16:55:10.947Z,96062.53
2019-06-15T16:57:38.740Z,96062.80
2019-06-15T17:00:19.135Z,96062.48
2019-06-15T17:02:48.064Z,96067.13
2019-06-15T17:05:17.198Z,96062.81
2019-06-15T17:07:46.232Z,96071.03
2019-06-15T17:10:16.910Z,96065.31
2019-06-15T17:12:47.568Z,96069.39
2019-06-15T17:15:16.994Z,96070.74
2019-06-15T17:17:46.094Z,96067.19
2019-06-15T17:20:16.270Z,96066.14
2019-06-15T17:22:47.283Z,96063.66
2019-06-15T17:25:16.567Z,96050.09
2019-06-15T17:27:46.967Z,96042.17
2019-06-15T17:30:17.232Z,96038.88
2019-06-15T17:32:45.805Z,96030.02
2019-06-15T17:35:16.763Z,96015.30
2019-06-15T17:37:46.884Z,96018.70
2019-06-15T17:40:16.249Z,96013.68
2019-06-15T17:42:44.827Z,96011.02
2019-06-15T17:45:15.998Z,96012.69
2019-06-15T17:47:43.736Z,96009.50
2019-06-15T17:50:12.197Z,96025.08
2019-06-15T17:52:40.620Z,96026.02
2019-06-15T17:55:09.093Z,96026.62
2019-06-15T17:57:37.648Z,96022.58
2019-06-15T18:00:09.641Z,96031.98
2019-06-15T18:02:38.419Z,96038.48
2019-06-15T18:05:07.329Z,96043.77
2019-06-15T18:07:36.083Z,96050.14
2019-06-15T18:10:36.238Z,96050.99
2019-06-15T18:13:07.053Z,96056.53
2019-06-15T18:15:36.306Z,96047.91
2019-06-15T18:18:06.921Z,96051.48
2019-06-15T18:20:36.422Z,96052.89
2019-06-15T18:23:06.006Z,96051.33
2019-06-15T18:25:37.053Z,96046.25
2019-06-15T18:28:06.469Z,96047.42
2019-06-15T18:30:37.135Z,96042.91
2019-06-15T18:33:07.119Z,96048.98
2019-06-15T18:35:36.115Z,96035.18
2019-06-15T18:38:07.024Z,96041.19
2019-06-15T18:40:37.094Z,96040.38
2019-06-15T18:43:07.364Z,96033.59
2019-06-15T18:45:36.227Z,96026.78
2019-06-15T18:48:06.246Z,96028.74
2019-06-15T18:50:37.807Z,96028.75
2019-06-15T18:53:07.289Z,96027.98
2019-06-15T18:55:36.381Z,96022.27
2019-06-15T18:58:05.938Z,96029.66
2019-06-15T19:00:36.863Z,96031.89
2019-06-15T19:03:06.902Z,96023.28
2019-06-15T19:05:37.254Z,96026.09
2019-06-15T19:08:06.775Z,96025.05
2019-06-15T19:10:36.708Z,96026.96
2019-06-15T19:13:07.572Z,96028.88
2019-06-15T19:15:37.258Z,96032.95
2019-06-15T19:18:07.328Z,96030.23
2019-06-15T19:20:37.256Z,96029.16
2019-06-15T19:23:06.890Z,96033.51
2019-06-15T19:25:36.570Z,96026.25
2019-06-15T19:28:05.825Z,96027.63
2019-06-15T19:30:37.106Z,96039.55
2019-06-15T19:33:04.747Z,96044.18
2019-06-15T19:35:33.250Z,96045.30
2019-06-15T19:38:01.647Z,96045.06
2019-06-15T19:40:30.038Z,96052.69
2019-06-15T19:42:58.750Z,96056.80
2019-06-15T19:45:27.288Z,96066.88
2019-06-15T19:47:55.696Z,96060.73
2019-06-15T19:50:26.811Z,96060.73
2019-06-15T19:52:56.540Z,96065.36
2019-06-15T19:55:26.888Z,96065.36
2019-06-15T19:57:56.896Z,96075.13
2019-06-15T20:00:27.087Z,96058.89
2019-06-15T20:02:57.275Z,96058.89
2019-06-15T20:05:28.596Z,96073.22
2019-06-15T20:07:57.007Z,96076.77
2019-06-15T20:10:26.597Z,96073.31
2019-06-15T20:12:56.220Z,96077.12
2019-06-15T20:15:26.297Z,96075.74
2019-06-15T20:17:57.037Z,96074.13
2019-06-15T20:20:26.647Z,96074.13
2019-06-15T20:22:56.104Z,96072.78
2019-06-15T20:25:26.712Z,96077.68
2019-06-15T20:27:56.367Z,96074.44
2019-06-15T20:30:24.936Z,96075.26
2019-06-15T20:32:53.341Z,96077.72
2019-06-15T20:35:21.913Z,96074.19
2019-06-15T20:37:50.377Z,96075.56
2019-06-15T20:40:19.052Z,96079.08
2019-06-15T20:42:47.741Z,96074.73
2019-06-15T20:45:16.690Z,96073.64
2019-06-15T20:47:47.761Z,96074.19
2019-06-15T20:50:27.334Z,96073.37
2019-06-15T20:52:47.171Z,96075.58
2019-06-15T20:55:16.328Z,96087.25
2019-06-15T20:57:46.091Z,96082.08
2019-06-15T21:00:16.727Z,96090.48
2019-06-15T21:02:45.227Z,96096.48
2019-06-15T21:05:32.637Z,96100.28
2019-06-15T21:07:46.708Z,96103.80
2019-06-15T21:10:16.086Z,96098.66
2019-06-15T21:12:46.910Z,96105.16
2019-06-15T21:15:15.250Z,96107.09
2019-06-15T21:17:43.648Z,96102.73
2019-06-15T21:20:16.105Z,96108.70
2019-06-15T21:22:46.369Z,96110.59
2019-06-15T21:25:17.369Z,96113.59
2019-06-15T21:27:44.433Z,96121.47
2019-06-15T21:30:16.381Z,96117.91
2019-06-15T21:32:46.446Z,96111.39
2019-06-15T21:35:14.229Z,96108.95
2019-06-15T21:37:42.627Z,96109.52
2019-06-15T21:40:11.484Z,96110.31
2019-06-15T21:42:39.895Z,96106.54
2019-06-15T21:45:08.640Z,96108.14
2019-06-15T21:47:37.406Z,96109.25
2019-06-15T21:50:11.013Z,96110.31
2019-06-15T21:52:39.409Z,96109.23
2019-06-15T21:55:08.140Z,96114.36
2019-06-15T21:57:36.843Z,96118.42
2019-06-15T22:00:11.868Z,96124.11
2019-06-15T22:02:40.340Z,96133.06
2019-06-15T22:05:09.092Z,96139.00
2019-06-15T22:07:37.489Z,96150.94
2019-06-15T22:10:08.052Z,96152.52
2019-06-15T22:12:36.685Z,96154.60
2019-06-15T22:15:07.356Z,96155.64
2019-06-15T22:17:37.074Z,96152.36
2019-06-15T22:20:09.921Z,96156.92
2019-06-15T22:22:38.325Z,96158.53
2019-06-15T22:25:07.848Z,96156.05
2019-06-15T22:27:36.593Z,96164.13
2019-06-15T22:30:08.485Z,96163.83
2019-06-15T22:32:36.880Z,96169.72
2019-06-15T22:35:08.176Z,96170.22
2019-06-15T22:37:36.637Z,96184.23
2019-06-15T22:40:07.692Z,96199.05
2019-06-15T22:42:36.448Z,96227.14
2019-06-15T22:45:08.944Z,96250.78
2019-06-15T22:47:37.411Z,96278.75
2019-06-15T22:50:08.082Z,96312.92
2019-06-15T22:52:36.912Z,96333.88
2019-06-15T22:55:08.656Z,96335.39
2019-06-15T22:57:37.306Z,96345.07
2019-06-15T23:00:07.756Z,96363.37
2019-06-15T23:02:36.461Z,96390.38
2019-06-15T23:05:06.623Z,96370.13
2019-06-15T23:07:36.285Z,96382.00
2019-06-15T23:10:08.259Z,96373.80
2019-06-15T23:12:37.412Z,96391.89
2019-06-15T23:15:07.734Z,96401.64
2019-06-15T23:17:37.116Z,96393.83
2019-06-15T23:20:09.776Z,96406.72
2019-06-15T23:22:38.168Z,96405.32
2019-06-15T23:25:06.708Z,96388.56
2019-06-15T23:27:35.356Z,96425.13
2019-06-15T23:30:06.890Z,96432.80
2019-06-15T23:32:35.387Z,96437.97
2019-06-15T23:35:08.605Z,96439.69
2019-06-15T23:37:37.521Z,96446.95
2019-06-15T23:40:19.166Z,96452.05
2019-06-15T23:42:48.698Z,96460.27
2019-06-15T23:45:20.978Z,96463.39
2019-06-15T23:47:49.713Z,96463.06
2019-06-15T23:50:19.550Z,96471.61
2019-06-15T23:52:48.509Z,96469.77
2019-06-15T23:55:17.883Z,96476.02
2019-06-15T23:57:46.653Z,96473.39
